createdAt,value
2023-02-22T00:04:10.481Z,3.77
2023-02-22T00:09:20.870Z,3.70
2023-02-22T00:14:28.948Z,3.65
2023-02-22T00:19:35.501Z,3.55
2023-02-22T00:24:41.871Z,3.44
2023-02-22T00:29:50.193Z,3.20
2023-02-22T00:34:56.637Z,3.14
2023-02-22T00:40:08.869Z,3.08
2023-02-22T00:45:20.605Z,3.01
2023-02-22T00:50:29.468Z,2.72
2023-02-22T00:55:40.289Z,2.63
2023-02-22T01:00:48.992Z,2.55
2023-02-22T01:05:55.227Z,2.39
2023-02-22T01:11:01.819Z,2.31
2023-02-22T01:16:10.104Z,2.30
2023-02-22T01:21:16.967Z,2.22
2023-02-22T01:26:23.474Z,2.27
2023-02-22T01:31:31.119Z,2.29
2023-02-22T01:36:38.032Z,1.98
2023-02-22T01:41:44.681Z,1.87
2023-02-22T01:46:52.878Z,1.90
2023-02-22T01:52:03.448Z,1.83
2023-02-22T01:57:17.494Z,1.79
2023-02-22T02:02:25.699Z,1.66
2023-02-22T02:07:33.620Z,1.73
2023-02-22T02:12:40.247Z,1.86
2023-02-22T02:17:49.661Z,2.00
2023-02-22T02:23:10.244Z,2.02
2023-02-22T02:29:10.710Z,2.06
2023-02-22T02:34:25.710Z,2.04
2023-02-22T02:39:37.473Z,2.10
2023-02-22T02:44:48.671Z,2.09
2023-02-22T02:50:01.968Z,2.03
2023-02-22T02:55:12.202Z,2.01
2023-02-22T03:00:26.280Z,1.85
2023-02-22T03:06:06.120Z,1.89
2023-02-22T03:11:17.002Z,1.86
2023-02-22T03:16:35.711Z,1.94
2023-02-22T03:21:51.461Z,2.02
2023-02-22T03:27:05.258Z,1.98
2023-02-22T03:32:17.614Z,2.04
2023-02-22T03:37:29.389Z,2.03
2023-02-22T03:42:39.247Z,2.00
2023-02-22T03:47:51.906Z,1.86
2023-02-22T03:53:00.647Z,1.79
2023-02-22T03:58:14.137Z,1.79
2023-02-22T04:03:21.373Z,1.77
2023-02-22T04:08:30.576Z,1.68
2023-02-22T04:13:36.456Z,1.66
2023-02-22T04:18:42.550Z,1.66
2023-02-22T04:23:50.458Z,1.67
2023-02-22T04:28:57.018Z,1.67
2023-02-22T04:34:05.409Z,1.65
2023-02-22T04:39:17.371Z,1.62
2023-02-22T04:44:24.298Z,1.55
2023-02-22T04:49:34.518Z,1.52
2023-02-22T04:54:43.423Z,1.48
2023-02-22T04:59:51.621Z,1.66
2023-02-22T05:05:02.921Z,1.74
2023-02-22T05:10:12.101Z,1.77
2023-02-22T05:15:20.524Z,1.77
2023-02-22T05:20:30.702Z,1.67
2023-02-22T05:25:38.992Z,1.64
2023-02-22T05:30:45.622Z,1.68
2023-02-22T05:35:52.288Z,1.68
2023-02-22T05:41:00.115Z,1.56
2023-02-22T05:46:07.713Z,1.52
2023-02-22T05:51:14.380Z,1.64
2023-02-22T05:56:27.037Z,1.72
2023-02-22T06:01:33.860Z,1.77
2023-02-22T06:06:40.443Z,1.76
2023-02-22T06:11:48.564Z,1.78
2023-02-22T06:16:56.105Z,1.62
2023-02-22T06:22:05.055Z,1.53
2023-02-22T06:27:12.947Z,1.70
2023-02-22T06:32:19.421Z,1.76
2023-02-22T06:37:25.914Z,1.82
2023-02-22T06:42:33.970Z,1.83
2023-02-22T06:47:43.697Z,1.88
2023-02-22T06:52:49.874Z,1.92
2023-02-22T06:57:58.294Z,1.95
2023-02-22T07:03:07.010Z,1.88
2023-02-22T07:08:14.420Z,1.95
2023-02-22T07:13:22.530Z,1.92
2023-02-22T07:18:30.014Z,1.98
2023-02-22T07:23:40.384Z,2.05
2023-02-22T07:28:48.494Z,2.13
2023-02-22T07:33:55.781Z,2.32
2023-02-22T07:39:02.097Z,2.28
2023-02-22T07:44:10.044Z,2.35
2023-02-22T07:49:16.472Z,2.28
2023-02-22T07:54:22.956Z,2.22
2023-02-22T07:59:31.030Z,2.25
2023-02-22T08:04:37.486Z,2.27
2023-02-22T08:09:43.740Z,2.25
2023-02-22T08:14:51.538Z,2.25
2023-02-22T08:19:57.896Z,2.29
2023-02-22T08:25:04.217Z,2.33
2023-02-22T08:30:16.429Z,2.32
2023-02-22T08:35:24.478Z,2.36
2023-02-22T08:40:33.557Z,2.31
2023-02-22T08:45:41.046Z,2.34
2023-02-22T08:50:47.335Z,2.42
2023-02-22T08:55:54.473Z,2.46
2023-02-22T09:01:02.502Z,2.60
2023-02-22T09:06:09.327Z,2.59
2023-02-22T09:11:16.412Z,2.66
2023-02-22T09:16:24.488Z,2.51
2023-02-22T09:21:31.944Z,2.53
2023-02-22T09:26:40.308Z,2.64
2023-02-22T09:31:48.140Z,2.12
2023-02-22T09:36:54.582Z,1.77
2023-02-22T09:42:11.038Z,1.72
2023-02-22T09:47:32.707Z,1.63
2023-02-22T09:52:49.275Z,1.57
2023-02-22T09:57:58.167Z,1.58
2023-02-22T10:03:21.216Z,1.36
2023-02-22T10:08:33.685Z,1.44
2023-02-22T10:13:53.607Z,1.50
2023-02-22T10:19:29.582Z,1.40
2023-02-22T10:24:48.034Z,1.46
2023-02-22T10:30:01.174Z,1.66
2023-02-22T10:35:22.669Z,1.67
2023-02-22T10:40:33.615Z,1.58
2023-02-22T10:45:40.206Z,1.77
2023-02-22T10:50:50.808Z,1.62
2023-02-22T10:56:15.196Z,1.75
2023-02-22T11:01:41.101Z,1.78
2023-02-22T11:06:51.950Z,1.80
2023-02-22T11:12:13.150Z,1.87
2023-02-22T11:17:32.937Z,1.70
2023-02-22T11:22:43.681Z,1.84
2023-02-22T11:27:50.562Z,1.84
2023-02-22T11:33:01.482Z,1.90
2023-02-22T11:38:21.405Z,1.90
2023-02-22T11:43:28.037Z,2.08
2023-02-22T11:48:39.793Z,2.11
2023-02-22T11:54:09.646Z,2.15
2023-02-22T11:59:32.328Z,2.07
2023-02-22T12:05:08.399Z,2.03
2023-02-22T12:10:28.591Z,2.12
2023-02-22T12:15:41.546Z,2.05
2023-02-22T12:20:55.585Z,2.09
2023-02-22T12:26:11.881Z,2.12
2023-02-22T12:31:25.633Z,2.05
2023-02-22T12:36:41.433Z,2.11
2023-02-22T12:41:53.328Z,2.22
2023-02-22T12:47:02.817Z,2.12
2023-02-22T12:52:22.340Z,2.06
2023-02-22T12:57:43.140Z,2.04
2023-02-22T13:02:59.205Z,2.00
2023-02-22T13:08:23.080Z,2.01
2023-02-22T13:13:43.251Z,1.96
2023-02-22T13:18:58.862Z,1.92
2023-02-22T13:24:13.862Z,1.88
2023-02-22T13:29:28.820Z,1.76
2023-02-22T13:35:12.589Z,1.69
2023-02-22T13:40:46.995Z,1.64
2023-02-22T13:46:39.389Z,1.68
2023-02-22T13:51:57.093Z,1.75
2023-02-22T13:57:04.820Z,1.56
2023-02-22T14:02:55.895Z,1.55
2023-02-22T14:08:02.649Z,1.51
2023-02-22T14:13:09.866Z,1.51
2023-02-22T14:18:21.185Z,1.45
2023-02-22T14:23:38.293Z,1.40
2023-02-22T14:28:57.463Z,1.46
2023-02-22T14:34:16.530Z,1.38
2023-02-22T14:39:33.119Z,1.33
2023-02-22T14:44:50.642Z,1.30
2023-02-22T14:50:06.900Z,1.26
2023-02-22T14:55:26.116Z,1.26
2023-02-22T15:00:42.950Z,1.26
2023-02-22T15:05:51.307Z,1.35
2023-02-22T15:10:59.200Z,1.40
2023-02-22T15:16:08.792Z,1.38
2023-02-22T15:21:18.938Z,1.27
2023-02-22T15:26:31.706Z,1.22
2023-02-22T15:31:44.391Z,1.22
2023-02-22T15:36:56.572Z,1.20
2023-02-22T15:42:09.713Z,1.20
2023-02-22T15:47:21.458Z,1.16
2023-02-22T15:52:30.001Z,1.22
2023-02-22T15:57:37.991Z,1.27
2023-02-22T16:02:45.091Z,1.26
2023-02-22T16:07:55.307Z,1.27
2023-02-22T16:13:22.176Z,1.26
2023-02-22T16:18:41.131Z,1.24
2023-02-22T16:24:01.358Z,1.29
2023-02-22T16:29:28.627Z,1.27
2023-02-22T16:34:35.374Z,1.28
2023-02-22T16:39:47.722Z,1.26
2023-02-22T16:44:55.033Z,1.24
2023-02-22T16:50:02.501Z,1.31
2023-02-22T16:55:17.167Z,1.30
2023-02-22T17:00:32.891Z,1.30
2023-02-22T17:05:40.924Z,1.27
2023-02-22T17:10:53.381Z,1.30
2023-02-22T17:16:02.170Z,1.34
2023-02-22T17:21:13.579Z,1.32
2023-02-22T17:26:22.742Z,1.30
2023-02-22T17:31:32.826Z,1.28
2023-02-22T17:36:40.641Z,1.31
2023-02-22T17:41:58.411Z,1.29
2023-02-22T17:47:06.576Z,1.31
2023-02-22T17:52:16.809Z,1.28
2023-02-22T17:57:27.684Z,1.27
2023-02-22T18:02:39.571Z,1.27
2023-02-22T18:07:48.215Z,1.25
2023-02-22T18:13:02.231Z,1.19
2023-02-22T18:18:12.708Z,1.21
2023-02-22T18:23:28.899Z,1.12
2023-02-22T18:28:43.440Z,1.12
2023-02-22T18:33:58.633Z,1.07
2023-02-22T18:39:13.046Z,1.00
2023-02-22T18:44:35.154Z,0.93
2023-02-22T18:49:44.668Z,0.92
2023-02-22T18:55:01.975Z,0.94
2023-02-22T19:00:29.202Z,0.84
2023-02-22T19:05:40.613Z,0.84
2023-02-22T19:10:53.254Z,0.87
2023-02-22T19:16:08.044Z,0.89
2023-02-22T19:21:19.515Z,0.87
2023-02-22T19:26:31.860Z,0.81
2023-02-22T19:37:36.960Z,0.84
2023-02-22T19:42:48.605Z,0.78
2023-02-22T19:47:59.084Z,0.70
2023-02-22T19:53:16.786Z,0.68
2023-02-22T19:58:26.408Z,0.69
2023-02-22T20:03:39.568Z,0.58
2023-02-22T20:08:52.058Z,0.54
2023-02-22T20:14:03.442Z,0.46
2023-02-22T20:19:12.148Z,0.30
2023-02-22T20:24:28.361Z,0.25
2023-02-22T20:29:43.720Z,0.27
2023-02-22T20:34:53.871Z,0.10
2023-02-22T20:40:08.948Z,-0.04
2023-02-22T20:45:20.798Z,-0.14
2023-02-22T20:50:34.151Z,-0.33
2023-02-22T20:55:53.447Z,-0.25
2023-02-22T21:01:12.523Z,-0.39
2023-02-22T21:06:23.703Z,-0.52
2023-02-22T21:11:39.321Z,-0.42
2023-02-22T21:16:56.478Z,-0.40
2023-02-22T21:22:13.716Z,-0.49
2023-02-22T21:27:25.024Z,-0.42
2023-02-22T21:32:36.227Z,-0.46
2023-02-22T21:37:48.198Z,-0.53
2023-02-22T21:42:59.185Z,-0.59
2023-02-22T21:48:09.881Z,-0.58
2023-02-22T21:53:18.989Z,-0.50
2023-02-22T21:58:31.295Z,-0.62
2023-02-22T22:03:38.566Z,-0.66
2023-02-22T22:08:49.135Z,-0.66
2023-02-22T22:14:05.700Z,-0.70
2023-02-22T22:19:16.337Z,-0.89
2023-02-22T22:24:29.812Z,-1.04
2023-02-22T22:29:44.483Z,-0.99
2023-02-22T22:34:57.424Z,-0.98
2023-02-22T22:40:16.631Z,-0.85
2023-02-22T22:45:28.357Z,-0.86
2023-02-22T22:50:41.201Z,-0.82
2023-02-22T22:55:50.798Z,-0.87
2023-02-22T23:01:02.113Z,-0.94
2023-02-22T23:06:10.706Z,-0.88
2023-02-22T23:11:18.578Z,-0.76
2023-02-22T23:16:27.348Z,-0.68
2023-02-22T23:21:36.189Z,-0.69
2023-02-22T23:26:42.885Z,-0.77
2023-02-22T23:31:51.820Z,-0.72
2023-02-22T23:36:58.019Z,-0.73
2023-02-22T23:42:04.782Z,-0.83
2023-02-22T23:47:12.968Z,-0.75
2023-02-22T23:52:24.491Z,-0.77
2023-02-22T23:57:33.183Z,-0.70
